Time;durP1;ratioP1;P1;durP2;ratioP2;P2;SDS_P1;SDS_P2;PMS_P1;PMS_P2;Temp;Humidity;BMP_temperature;BMP_pressure;BME280_temperature;BME280_humidity;BME280_pressure;Samples;Min_cycle;Max_cycle;Signal;HPM_P1;HPM_P2
2021/10/11 00:01:05;;;;;;;9.83;5.77;;;8.30;65.50;;;;;;5057818;28;20056;-79
2021/10/11 00:03:30;;;;;;;9.37;5.57;;;8.20;65.50;;;;;;5051878;28;20037;-79
2021/10/11 00:05:56;;;;;;;10.60;6.27;;;8.20;65.80;;;;;;5048573;28;20397;-79
2021/10/11 00:08:22;;;;;;;8.30;5.80;;;8.20;65.90;;;;;;5044306;28;20037;-79
2021/10/11 00:10:51;;;;;;;8.90;5.60;;;8.20;66.00;;;;;;5045356;28;20026;-79
2021/10/11 00:13:21;;;;;;;8.67;5.47;;;8.20;66.00;;;;;;5048377;28;20017;-78
2021/10/11 00:15:47;;;;;;;10.23;5.80;;;8.20;65.70;;;;;;5047288;28;20033;-79
2021/10/11 00:18:14;;;;;;;9.47;4.77;;;8.30;65.60;;;;;;5051058;28;20025;-79
2021/10/11 00:20:39;;;;;;;6.17;4.30;;;8.10;65.60;;;;;;5056807;28;20013;-79
2021/10/11 00:23:05;;;;;;;6.90;4.87;;;8.00;65.60;;;;;;5047590;28;20419;-79
2021/10/11 00:25:31;;;;;;;7.53;4.90;;;7.90;66.00;;;;;;5054017;28;20087;-79
2021/10/11 00:27:56;;;;;;;14.67;4.80;;;7.90;66.50;;;;;;5060241;28;20044;-78
2021/10/11 00:30:22;;;;;;;7.97;4.83;;;7.90;66.40;;;;;;5051568;28;20378;-78
2021/10/11 00:32:48;;;;;;;6.40;4.50;;;7.90;66.20;;;;;;5050706;28;20085;-79
2021/10/11 00:35:14;;;;;;;7.63;4.93;;;7.90;66.30;;;;;;5053473;28;21028;-79
2021/10/11 00:37:40;;;;;;;8.33;4.80;;;7.90;66.30;;;;;;5055102;28;20379;-79
2021/10/11 00:40:07;;;;;;;7.33;4.47;;;7.90;66.30;;;;;;5047673;28;20047;-80
2021/10/11 00:42:33;;;;;;;6.20;4.13;;;7.90;66.40;;;;;;5049921;28;20025;-79
2021/10/11 00:44:59;;;;;;;7.87;4.57;;;7.80;66.50;;;;;;5049424;28;20029;-79
2021/10/11 00:47:24;;;;;;;6.43;4.27;;;7.80;66.70;;;;;;5053529;28;20341;-79
2021/10/11 00:49:50;;;;;;;7.07;4.43;;;7.80;66.90;;;;;;5045038;28;20119;-79
2021/10/11 00:52:16;;;;;;;6.97;4.77;;;7.80;66.90;;;;;;5056373;28;20414;-79
2021/10/11 00:54:42;;;;;;;8.50;5.13;;;7.80;67.10;;;;;;5054840;28;20029;-79
2021/10/11 00:57:08;;;;;;;8.43;4.30;;;7.80;66.90;;;;;;5048989;28;20044;-78
2021/10/11 00:59:33;;;;;;;7.67;4.67;;;7.90;66.90;;;;;;5054753;28;20525;-78
2021/10/11 01:01:59;;;;;;;5.83;4.10;;;7.90;66.80;;;;;;5037559;28;20340;-78
2021/10/11 01:04:25;;;;;;;9.37;5.67;;;7.90;66.70;;;;;;5050106;28;20098;-79
2021/10/11 01:06:51;;;;;;;9.93;6.00;;;7.90;66.80;;;;;;5046278;28;20025;-78
2021/10/11 01:09:16;;;;;;;10.03;6.13;;;7.80;66.90;;;;;;5055440;28;20032;-78
2021/10/11 01:11:42;;;;;;;8.30;5.37;;;7.70;67.20;;;;;;5051237;28;20063;-78
2021/10/11 01:14:08;;;;;;;7.93;5.20;;;7.70;67.30;;;;;;5053259;28;20032;-79
2021/10/11 01:16:34;;;;;;;10.20;4.70;;;7.70;68.00;;;;;;5056832;28;20415;-78
2021/10/11 01:19:00;;;;;;;8.13;5.97;;;7.80;67.20;;;;;;5061123;28;20090;-78
2021/10/11 01:21:26;;;;;;;8.70;4.53;;;7.80;67.00;;;;;;5050024;28;20025;-79
2021/10/11 01:23:53;;;;;;;6.87;4.70;;;7.80;66.80;;;;;;5043417;28;20036;-79
2021/10/11 01:26:20;;;;;;;6.90;4.80;;;7.80;66.60;;;;;;5053697;28;20025;-78
2021/10/11 01:28:46;;;;;;;7.40;5.00;;;7.70;66.90;;;;;;5055926;28;20158;-78
2021/10/11 01:31:12;;;;;;;11.00;6.53;;;7.70;67.10;;;;;;5052590;28;20115;-79
2021/10/11 01:33:37;;;;;;;10.93;6.20;;;7.60;67.10;;;;;;5052917;28;20029;-79
2021/10/11 01:36:03;;;;;;;12.30;6.50;;;7.60;67.20;;;;;;5058909;28;20028;-79
2021/10/11 01:38:29;;;;;;;8.50;5.63;;;7.60;67.20;;;;;;5058940;28;20020;-79
2021/10/11 01:40:55;;;;;;;11.23;5.87;;;7.50;67.20;;;;;;5046589;28;20036;-78
2021/10/11 01:43:20;;;;;;;10.20;5.47;;;7.50;67.30;;;;;;5048836;28;20078;-79
2021/10/11 01:45:50;;;;;;;7.70;5.23;;;7.60;67.20;;;;;;5053099;28;20094;-79
2021/10/11 01:48:16;;;;;;;7.83;5.03;;;7.60;67.00;;;;;;5062516;28;20025;-79
2021/10/11 01:50:42;;;;;;;8.27;5.80;;;7.50;67.20;;;;;;5043024;28;20020;-78
2021/10/11 01:53:08;;;;;;;9.57;6.33;;;7.50;67.20;;;;;;5052030;28;20048;-78
2021/10/11 01:55:34;;;;;;;8.90;5.63;;;7.50;67.20;;;;;;5045207;28;20033;-78
2021/10/11 01:58:00;;;;;;;9.67;5.60;;;7.50;67.10;;;;;;5044899;28;20416;-79
2021/10/11 02:00:26;;;;;;;10.47;6.10;;;7.50;67.10;;;;;;5050577;28;20025;-79
2021/10/11 02:02:52;;;;;;;9.67;5.80;;;7.40;67.30;;;;;;5046420;28;20375;-79
2021/10/11 02:05:20;;;;;;;8.17;4.90;;;7.50;67.40;;;;;;5040370;28;20017;-79
2021/10/11 02:07:46;;;;;;;8.83;5.57;;;7.40;67.40;;;;;;5043736;28;20040;-78
2021/10/11 02:10:15;;;;;;;10.83;6.27;;;7.40;67.50;;;;;;5044027;28;20025;-78
2021/10/11 02:12:41;;;;;;;8.70;5.87;;;7.40;67.50;;;;;;5052716;28;20016;-78
2021/10/11 02:15:07;;;;;;;12.07;6.10;;;7.40;67.60;;;;;;5048976;28;20547;-78
2021/10/11 02:17:33;;;;;;;8.87;6.30;;;7.30;68.30;;;;;;5050429;28;20017;-79
2021/10/11 02:19:58;;;;;;;10.17;6.13;;;7.40;67.80;;;;;;5044627;28;20086;-79
2021/10/11 02:22:24;;;;;;;10.70;5.43;;;7.30;67.70;;;;;;5052764;28;20033;-79
2021/10/11 02:24:50;;;;;;;9.03;6.10;;;7.30;67.90;;;;;;5048149;28;20116;-78
2021/10/11 02:27:19;;;;;;;9.40;6.97;;;7.20;67.70;;;;;;5046694;28;20052;-79
2021/10/11 02:29:47;;;;;;;11.33;7.97;;;7.20;67.80;;;;;;5048175;28;20029;-79
2021/10/11 02:32:13;;;;;;;10.83;5.97;;;7.20;68.10;;;;;;5044919;28;20055;-79
2021/10/11 02:34:45;;;;;;;10.60;5.93;;;7.20;68.20;;;;;;5048533;28;20374;-79
2021/10/11 02:37:11;;;;;;;8.43;5.47;;;7.20;68.10;;;;;;5048792;28;20368;-79
2021/10/11 02:39:36;;;;;;;8.60;5.97;;;7.20;68.10;;;;;;5060548;28;20032;-78
2021/10/11 02:42:02;;;;;;;7.70;5.30;;;7.30;67.90;;;;;;5056428;28;20075;-78
2021/10/11 02:44:28;;;;;;;11.03;5.97;;;7.30;67.90;;;;;;5056882;28;20112;-79
2021/10/11 02:46:54;;;;;;;11.53;5.63;;;7.30;67.80;;;;;;5048216;28;20048;-78
2021/10/11 02:49:19;;;;;;;8.73;4.93;;;7.20;67.70;;;;;;5060267;28;20055;-78
2021/10/11 02:51:45;;;;;;;9.87;5.27;;;7.20;68.40;;;;;;5059803;28;20849;-79
2021/10/11 02:54:11;;;;;;;8.47;4.80;;;7.10;67.80;;;;;;5056178;28;20028;-78
2021/10/11 02:56:37;;;;;;;7.40;5.17;;;7.10;68.00;;;;;;5050558;28;20024;-78
2021/10/11 02:59:03;;;;;;;9.03;5.70;;;7.10;68.30;;;;;;5058903;28;20405;-78
2021/10/11 03:01:28;;;;;;;13.50;7.53;;;7.00;68.10;;;;;;5053896;28;20025;-79
2021/10/11 03:03:54;;;;;;;14.87;7.30;;;7.00;68.30;;;;;;5047333;28;20029;-79
2021/10/11 03:06:20;;;;;;;8.93;6.00;;;7.00;68.50;;;;;;5052222;28;20108;-79
2021/10/11 03:08:45;;;;;;;8.17;5.43;;;7.00;68.50;;;;;;5049331;28;20037;-78
2021/10/11 03:11:11;;;;;;;10.87;5.47;;;7.00;68.30;;;;;;5056976;28;20025;-79
2021/10/11 03:13:37;;;;;;;7.77;5.10;;;7.00;68.40;;;;;;5056529;28;20059;-79
2021/10/11 03:16:03;;;;;;;8.73;5.57;;;7.00;68.30;;;;;;5047410;28;20029;-79
2021/10/11 03:18:28;;;;;;;9.00;5.93;;;7.00;68.30;;;;;;5057195;28;20029;-78
2021/10/11 03:20:54;;;;;;;9.77;5.87;;;6.90;68.10;;;;;;5052010;28;20120;-78
2021/10/11 03:23:20;;;;;;;9.00;5.40;;;6.80;68.40;;;;;;5047543;28;20059;-79
2021/10/11 03:25:45;;;;;;;8.73;5.23;;;6.80;68.40;;;;;;5049278;28;20033;-78
2021/10/11 03:28:11;;;;;;;10.13;4.97;;;6.80;68.50;;;;;;5052096;28;20045;-78
2021/10/11 03:30:37;;;;;;;8.03;5.10;;;6.90;68.40;;;;;;5053938;28;20017;-78
2021/10/11 03:33:02;;;;;;;9.43;5.10;;;6.90;68.20;;;;;;5047480;28;20118;-78
2021/10/11 03:35:28;;;;;;;10.23;5.53;;;6.90;68.30;;;;;;5050472;28;20029;-78
2021/10/11 03:37:54;;;;;;;9.03;5.57;;;6.90;68.30;;;;;;5056105;28;20033;-79
2021/10/11 03:40:20;;;;;;;11.07;6.53;;;6.90;68.30;;;;;;5057074;28;20363;-78
2021/10/11 03:42:45;;;;;;;10.00;6.87;;;6.80;68.30;;;;;;5057018;28;20051;-78
2021/10/11 03:45:11;;;;;;;12.73;8.83;;;6.80;68.50;;;;;;5063095;28;20433;-78
2021/10/11 03:47:38;;;;;;;10.97;5.80;;;6.80;68.90;;;;;;5053042;28;20029;-78
2021/10/11 03:50:05;;;;;;;9.97;5.77;;;6.70;68.70;;;;;;5062678;28;20021;-78
2021/10/11 03:52:31;;;;;;;9.50;5.00;;;6.70;68.80;;;;;;5056818;28;20051;-78
2021/10/11 03:54:57;;;;;;;9.70;5.50;;;6.70;68.90;;;;;;5058586;28;20060;-78
2021/10/11 03:57:23;;;;;;;8.50;5.67;;;6.70;68.90;;;;;;5041705;28;20067;-78
2021/10/11 03:59:49;;;;;;;10.37;6.00;;;6.70;68.90;;;;;;5051345;28;20486;-78
2021/10/11 04:02:15;;;;;;;11.13;6.30;;;6.70;68.60;;;;;;5044188;28;20029;-78
2021/10/11 04:04:40;;;;;;;10.20;7.00;;;6.70;68.80;;;;;;5049751;28;20028;-78
2021/10/11 04:07:09;;;;;;;6.63;4.87;;;6.70;68.70;;;;;;5057706;28;20478;-78
2021/10/11 04:09:37;;;;;;;13.20;6.13;;;6.70;68.70;;;;;;5059409;28;20108;-78
2021/10/11 04:12:08;;;;;;;9.57;5.50;;;6.70;68.80;;;;;;5054939;28;20045;-78
2021/10/11 04:14:34;;;;;;;11.43;6.20;;;6.70;68.70;;;;;;5062114;28;20017;-78
2021/10/11 04:17:01;;;;;;;9.93;5.37;;;6.60;68.80;;;;;;5055755;28;20032;-79
2021/10/11 04:19:27;;;;;;;8.17;5.10;;;6.70;68.90;;;;;;5049153;28;20025;-78
2021/10/11 04:21:52;;;;;;;11.33;6.17;;;6.70;68.70;;;;;;5050234;28;20081;-78
2021/10/11 04:24:18;;;;;;;61.07;7.93;;;6.80;68.50;;;;;;5054014;28;20029;-79
2021/10/11 04:26:44;;;;;;;9.93;6.30;;;6.70;68.40;;;;;;5048325;28;20033;-78
2021/10/11 04:29:10;;;;;;;8.73;5.47;;;6.70;68.30;;;;;;5056091;28;20068;-76
2021/10/11 04:31:35;;;;;;;8.27;5.17;;;6.60;68.50;;;;;;5050962;28;20025;-77
2021/10/11 04:34:01;;;;;;;7.90;4.83;;;6.60;68.70;;;;;;5062563;28;20036;-77
2021/10/11 04:36:27;;;;;;;7.10;4.57;;;6.60;68.50;;;;;;5058054;28;20047;-77
2021/10/11 04:38:53;;;;;;;8.77;5.60;;;6.60;68.50;;;;;;5050367;28;20025;-77
2021/10/11 04:41:19;;;;;;;8.77;5.30;;;6.60;68.30;;;;;;5052348;28;20029;-77
2021/10/11 04:43:44;;;;;;;7.03;4.67;;;6.60;68.50;;;;;;5046033;28;20021;-77
2021/10/11 04:46:10;;;;;;;10.47;5.57;;;6.50;68.40;;;;;;5048662;28;20026;-77
2021/10/11 04:48:36;;;;;;;8.43;6.10;;;6.50;68.50;;;;;;5042049;28;20032;-77
2021/10/11 04:51:01;;;;;;;9.23;6.10;;;6.40;68.50;;;;;;5048637;28;20025;-76
2021/10/11 04:53:27;;;;;;;7.67;5.20;;;6.40;68.50;;;;;;5051851;28;20113;-77
2021/10/11 04:55:53;;;;;;;9.97;6.00;;;6.50;68.60;;;;;;5051903;28;20099;-77
2021/10/11 04:58:18;;;;;;;9.27;5.50;;;6.50;68.40;;;;;;5051882;28;20021;-77
2021/10/11 05:00:44;;;;;;;7.73;5.23;;;6.50;68.30;;;;;;5047717;28;20033;-77
2021/10/11 05:03:10;;;;;;;8.57;6.20;;;6.40;68.30;;;;;;5042800;28;20021;-77
2021/10/11 05:05:36;;;;;;;11.73;5.60;;;6.30;68.60;;;;;;5048142;28;20036;-77
2021/10/11 05:08:05;;;;;;;10.40;6.70;;;6.30;68.60;;;;;;5052983;28;20060;-82
2021/10/11 05:10:31;;;;;;;8.40;4.70;;;6.30;68.80;;;;;;5052076;28;20266;-78
2021/10/11 05:12:57;;;;;;;9.87;5.60;;;6.30;68.80;;;;;;5055725;28;20025;-78
2021/10/11 05:15:22;;;;;;;9.33;5.07;;;6.30;68.60;;;;;;5043990;28;20027;-79
2021/10/11 05:17:48;;;;;;;9.50;5.80;;;6.30;68.70;;;;;;5053047;28;20025;-78
2021/10/11 05:20:14;;;;;;;10.33;5.93;;;6.40;68.80;;;;;;5067523;28;20044;-78
2021/10/11 05:22:40;;;;;;;8.57;5.30;;;6.40;68.80;;;;;;5052808;28;20025;-79
2021/10/11 05:25:07;;;;;;;10.33;5.53;;;6.40;68.70;;;;;;5052924;28;20032;-79
2021/10/11 05:27:33;;;;;;;10.77;5.73;;;6.40;68.90;;;;;;5035197;28;20064;-78
2021/10/11 05:29:59;;;;;;;8.47;5.70;;;6.40;68.80;;;;;;5043059;28;20090;-78
2021/10/11 05:32:27;;;;;;;13.60;8.43;;;6.50;68.90;;;;;;5052771;28;20025;-78
2021/10/11 05:34:54;;;;;;;14.43;6.93;;;6.50;68.60;;;;;;5050101;28;20025;-79
2021/10/11 05:37:20;;;;;;;12.20;7.60;;;6.40;68.60;;;;;;5046181;28;20051;-79
2021/10/11 05:39:46;;;;;;;12.53;7.80;;;6.40;68.70;;;;;;5047051;28;20474;-79
2021/10/11 05:42:12;;;;;;;13.63;7.97;;;6.40;68.90;;;;;;5049363;28;20025;-79
2021/10/11 05:44:37;;;;;;;12.57;8.37;;;6.40;68.90;;;;;;5052087;28;20078;-79
2021/10/11 05:47:04;;;;;;;10.10;7.33;;;6.40;69.10;;;;;;5052077;28;20044;-79
2021/10/11 05:49:30;;;;;;;10.73;5.93;;;6.40;69.00;;;;;;5045637;28;20083;-79
2021/10/11 05:51:56;;;;;;;8.27;6.37;;;6.40;69.00;;;;;;5051168;28;20021;-79
2021/10/11 05:54:22;;;;;;;8.77;5.80;;;6.40;69.00;;;;;;5052130;28;20116;-79
2021/10/11 05:56:47;;;;;;;9.80;6.60;;;6.50;68.80;;;;;;5050876;28;20535;-79
2021/10/11 05:59:13;;;;;;;10.80;7.10;;;6.40;68.70;;;;;;5049480;28;20475;-79
2021/10/11 06:01:39;;;;;;;11.30;8.37;;;6.40;68.40;;;;;;5050807;28;20499;-79
2021/10/11 06:04:05;;;;;;;12.43;7.57;;;6.40;68.50;;;;;;5049226;28;20040;-79
2021/10/11 06:06:30;;;;;;;14.27;8.67;;;6.40;68.90;;;;;;5052216;28;20112;-79
2021/10/11 06:08:56;;;;;;;11.00;6.43;;;6.40;68.30;;;;;;5051127;28;20420;-79
2021/10/11 06:11:22;;;;;;;11.70;6.70;;;6.50;68.30;;;;;;5047021;28;20022;-78
2021/10/11 06:13:48;;;;;;;19.00;7.03;;;6.40;68.40;;;;;;5030903;28;20029;-79
2021/10/11 06:16:14;;;;;;;39.27;19.83;;;6.40;68.50;;;;;;5050337;28;20130;-78
2021/10/11 06:18:40;;;;;;;36.33;20.30;;;6.40;68.30;;;;;;5048100;28;20027;-78
2021/10/11 06:21:06;;;;;;;47.37;25.57;;;6.30;68.20;;;;;;5050693;28;20033;-78
2021/10/11 06:23:32;;;;;;;31.67;18.40;;;6.30;68.60;;;;;;5046588;28;20037;-79
2021/10/11 06:25:57;;;;;;;19.37;11.83;;;6.40;68.70;;;;;;5050786;28;20064;-78
2021/10/11 06:28:23;;;;;;;15.80;9.30;;;6.40;68.60;;;;;;5031629;28;20069;-78
2021/10/11 06:30:49;;;;;;;9.17;5.40;;;6.40;68.50;;;;;;5046235;28;20032;-79
2021/10/11 06:33:16;;;;;;;12.43;7.63;;;6.40;68.50;;;;;;5041709;28;20029;-78
2021/10/11 06:35:42;;;;;;;12.97;8.43;;;6.40;68.40;;;;;;5048082;28;20025;-78
2021/10/11 06:38:08;;;;;;;12.63;9.20;;;6.40;68.50;;;;;;5046753;28;21001;-78
2021/10/11 06:40:34;;;;;;;16.97;10.60;;;6.40;68.50;;;;;;5035994;28;20068;-79
2021/10/11 06:43:00;;;;;;;14.13;9.50;;;6.50;68.70;;;;;;5042990;28;20033;-78
2021/10/11 06:45:26;;;;;;;13.20;10.70;;;6.50;68.60;;;;;;5042881;28;20013;-79
2021/10/11 06:47:51;;;;;;;13.63;8.77;;;6.60;68.50;;;;;;5041352;28;20041;-79
2021/10/11 06:50:17;;;;;;;10.70;8.40;;;6.50;68.60;;;;;;5049610;28;20025;-79
2021/10/11 06:52:43;;;;;;;11.20;7.13;;;6.60;69.00;;;;;;5051753;28;20071;-79
2021/10/11 06:55:09;;;;;;;10.67;7.37;;;6.70;68.90;;;;;;5047681;28;20033;-79
2021/10/11 06:57:34;;;;;;;12.57;7.90;;;6.80;68.80;;;;;;5048692;28;20021;-78
2021/10/11 07:00:00;;;;;;;9.47;6.17;;;6.80;68.80;;;;;;5045913;28;20041;-78
2021/10/11 07:02:26;;;;;;;10.50;6.13;;;6.90;68.80;;;;;;5045611;28;20467;-78
2021/10/11 07:04:57;;;;;;;12.20;6.47;;;6.80;68.50;;;;;;5050574;28;20044;-78
2021/10/11 07:07:27;;;;;;;14.30;8.50;;;6.90;68.70;;;;;;5050674;28;20033;-78
2021/10/11 07:09:53;;;;;;;15.70;9.03;;;6.90;68.80;;;;;;5050863;28;20064;-78
2021/10/11 07:12:19;;;;;;;13.57;9.80;;;6.90;68.90;;;;;;5041659;28;20073;-78
2021/10/11 07:14:44;;;;;;;24.23;10.00;;;7.00;69.10;;;;;;5049820;28;20025;-78
2021/10/11 07:17:10;;;;;;;14.87;9.47;;;7.00;69.00;;;;;;5052374;28;20479;-78
2021/10/11 07:19:36;;;;;;;17.37;10.30;;;7.00;69.30;;;;;;5045480;28;20519;-78
2021/10/11 07:22:02;;;;;;;12.63;9.47;;;7.10;69.40;;;;;;5038959;28;20037;-78
2021/10/11 07:24:28;;;;;;;15.90;9.37;;;7.10;69.70;;;;;;5050626;28;20098;-79
2021/10/11 07:26:54;;;;;;;13.80;8.43;;;7.00;69.40;;;;;;5049574;28;20060;-78
2021/10/11 07:29:19;;;;;;;13.20;9.40;;;7.10;69.60;;;;;;5049132;28;20028;-78
2021/10/11 07:31:45;;;;;;;15.73;8.87;;;7.20;69.60;;;;;;5050348;28;20545;-78
2021/10/11 07:34:11;;;;;;;15.23;9.67;;;7.20;70.10;;;;;;5046022;28;20061;-79
2021/10/11 07:36:37;;;;;;;14.30;9.47;;;7.30;69.40;;;;;;5050472;28;20047;-78
2021/10/11 07:39:03;;;;;;;14.30;9.37;;;7.30;69.60;;;;;;5046164;28;20029;-78
2021/10/11 07:41:29;;;;;;;14.57;9.77;;;7.30;69.70;;;;;;5053072;28;20102;-79
2021/10/11 07:43:54;;;;;;;16.40;9.73;;;7.40;69.80;;;;;;5051826;28;20033;-78
2021/10/11 07:46:20;;;;;;;17.27;9.20;;;7.40;69.70;;;;;;5054437;28;20024;-78
2021/10/11 07:48:46;;;;;;;20.80;10.10;;;7.40;69.70;;;;;;5035789;28;20128;-79
2021/10/11 07:51:12;;;;;;;16.97;9.20;;;7.40;69.70;;;;;;5050490;28;20029;-79
2021/10/11 07:53:38;;;;;;;13.03;9.43;;;7.50;69.70;;;;;;5034948;28;20083;-78
2021/10/11 07:56:04;;;;;;;12.97;8.50;;;7.50;70.20;;;;;;5039398;28;20028;-79
2021/10/11 07:58:30;;;;;;;14.93;8.33;;;7.50;70.10;;;;;;5054365;28;20085;-78
2021/10/11 08:00:55;;;;;;;13.20;9.40;;;7.60;70.10;;;;;;5046653;28;20399;-78
2021/10/11 08:03:22;;;;;;;15.57;9.40;;;7.80;69.90;;;;;;5051446;28;20029;-78
2021/10/11 08:05:48;;;;;;;13.63;8.27;;;7.80;69.60;;;;;;5036175;28;20119;-79
2021/10/11 08:08:15;;;;;;;12.03;7.23;;;8.00;69.60;;;;;;5053108;28;20454;-79
2021/10/11 08:10:41;;;;;;;9.83;6.57;;;8.40;69.50;;;;;;5053738;28;20032;-79
2021/10/11 08:13:06;;;;;;;9.65;6.32;;;9.40;69.20;;;;;;5050745;28;20025;-79
2021/10/11 08:15:32;;;;;;;7.53;6.15;;;11.00;67.60;;;;;;5052091;28;20555;-79
2021/10/11 08:17:58;;;;;;;10.98;6.47;;;12.90;60.70;;;;;;5046179;28;20025;-78
2021/10/11 08:20:24;;;;;;;7.72;6.30;;;14.60;55.10;;;;;;5042371;28;20028;-79
2021/10/11 08:22:51;;;;;;;11.05;6.43;;;13.70;56.20;;;;;;5050837;28;20052;-79
2021/10/11 08:25:17;;;;;;;12.03;6.30;;;12.80;57.40;;;;;;5042880;28;20040;-79
2021/10/11 08:27:43;;;;;;;9.17;6.37;;;12.30;58.50;;;;;;5033637;28;20048;-79
2021/10/11 08:30:09;;;;;;;10.90;7.33;;;12.00;59.20;;;;;;5037006;28;20395;-79
2021/10/11 08:32:35;;;;;;;9.63;5.33;;;11.80;59.50;;;;;;5050342;28;20064;-79
2021/10/11 08:35:01;;;;;;;11.03;6.53;;;11.60;60.10;;;;;;5053459;28;20057;-79
2021/10/11 08:37:27;;;;;;;11.77;6.53;;;11.60;60.20;;;;;;5050662;28;20037;-79
2021/10/11 08:39:53;;;;;;;10.23;6.10;;;11.50;60.10;;;;;;5051589;28;20029;-79
2021/10/11 08:42:21;;;;;;;8.53;5.97;;;11.40;61.20;;;;;;5036927;28;20490;-79
2021/10/11 08:44:47;;;;;;;9.77;5.93;;;11.30;60.40;;;;;;5042687;28;20106;-79
2021/10/11 08:47:14;;;;;;;6.87;5.40;;;11.40;60.40;;;;;;5059963;28;20051;-79
2021/10/11 08:49:47;;;;;;;8.03;5.73;;;11.40;60.00;;;;;;5039513;28;20051;-79
2021/10/11 08:52:14;;;;;;;9.40;5.10;;;11.50;59.70;;;;;;5047391;28;20028;-79
2021/10/11 08:54:43;;;;;;;8.67;5.43;;;11.50;59.40;;;;;;5050688;28;20519;-79
2021/10/11 08:57:27;;;;;;;9.63;5.17;;;11.50;58.70;;;;;;5049780;28;20025;-79
2021/10/11 09:00:05;;;;;;;7.90;5.47;;;11.50;58.70;;;;;;5051964;28;20025;-79
2021/10/11 09:02:30;;;;;;;10.37;5.00;;;11.60;58.80;;;;;;5048253;28;20702;-79
2021/10/11 09:04:56;;;;;;;9.20;5.53;;;11.70;58.40;;;;;;5048904;28;20057;-79
2021/10/11 09:07:30;;;;;;;10.00;4.60;;;11.80;57.90;;;;;;5046949;28;20040;-79
2021/10/11 09:09:58;;;;;;;6.90;4.70;;;11.90;58.10;;;;;;5037825;28;20081;-79
2021/10/11 09:12:27;;;;;;;7.90;4.93;;;12.30;57.60;;;;;;5065195;28;20036;-79
2021/10/11 09:15:12;;;;;;;5.77;4.67;;;12.50;56.90;;;;;;5051690;28;20021;-79
2021/10/11 09:17:42;;;;;;;8.83;4.27;;;12.80;55.90;;;;;;5041118;28;20471;-79
2021/10/11 09:20:15;;;;;;;7.73;4.43;;;13.00;55.60;;;;;;5044369;28;20052;-79
2021/10/11 09:22:43;;;;;;;6.57;4.33;;;13.20;56.00;;;;;;5048071;28;20475;-79
2021/10/11 09:25:10;;;;;;;7.28;4.50;;;13.40;54.90;;;;;;5051547;28;20034;-79
2021/10/11 09:27:47;;;;;;;8.20;4.65;;;13.40;54.80;;;;;;5059796;28;20120;-79
2021/10/11 09:30:14;;;;;;;6.15;4.35;;;13.40;54.20;;;;;;5062217;28;20056;-79
2021/10/11 09:32:40;;;;;;;5.93;4.05;;;13.30;53.90;;;;;;5049737;28;20642;-79
2021/10/11 09:35:12;;;;;;;5.88;4.30;;;13.30;54.10;;;;;;5052531;28;20017;-79
2021/10/11 09:37:38;;;;;;;6.30;4.68;;;13.40;53.60;;;;;;5044665;28;20537;-79
2021/10/11 09:40:06;;;;;;;4.40;3.73;;;13.30;53.50;;;;;;5050161;28;20040;-79
2021/10/11 09:42:32;;;;;;;6.97;3.87;;;13.20;52.60;;;;;;5050825;28;20039;-79
2021/10/11 09:44:58;;;;;;;6.27;3.90;;;13.10;52.50;;;;;;5051435;28;20029;-80
2021/10/11 09:47:34;;;;;;;5.67;4.17;;;13.10;52.70;;;;;;5049213;28;20029;-79
2021/10/11 09:50:03;;;;;;;8.43;4.60;;;13.20;52.20;;;;;;5052376;28;20052;-79
2021/10/11 09:52:30;;;;;;;6.17;4.20;;;13.20;51.80;;;;;;5046057;28;20035;-79
2021/10/11 09:54:56;;;;;;;5.40;4.27;;;13.30;51.80;;;;;;5044119;28;20025;-79
2021/10/11 09:57:22;;;;;;;8.27;3.63;;;13.50;51.80;;;;;;5046929;28;20021;-79
2021/10/11 09:59:48;;;;;;;7.57;4.73;;;13.50;51.20;;;;;;5050219;28;20510;-80
2021/10/11 10:02:17;;;;;;;6.17;4.70;;;13.60;51.30;;;;;;5039652;28;20041;-79
2021/10/11 10:04:44;;;;;;;7.33;4.17;;;13.70;51.70;;;;;;5051112;28;20017;-79
2021/10/11 10:07:13;;;;;;;6.90;4.87;;;13.80;51.00;;;;;;5042452;28;20415;-79
2021/10/11 10:09:48;;;;;;;8.93;4.23;;;13.90;50.80;;;;;;5043918;28;20032;-79
2021/10/11 10:12:15;;;;;;;9.47;4.60;;;14.00;50.90;;;;;;5051769;28;20047;-80
2021/10/11 10:14:40;;;;;;;11.43;4.20;;;14.00;50.70;;;;;;5050612;28;20112;-80
2021/10/11 10:17:06;;;;;;;6.50;4.07;;;14.10;50.30;;;;;;5037598;28;20109;-80
2021/10/11 10:19:41;;;;;;;5.53;3.77;;;14.20;50.40;;;;;;5058905;28;20032;-80
2021/10/11 10:22:10;;;;;;;6.63;4.18;;;14.30;49.70;;;;;;5041581;28;20033;-80
2021/10/11 10:24:37;;;;;;;9.63;4.53;;;14.30;49.30;;;;;;5033883;28;20109;-80
2021/10/11 10:27:11;;;;;;;7.93;4.45;;;14.40;49.10;;;;;;5038941;28;20027;-81
2021/10/11 10:29:45;;;;;;;7.63;3.63;;;14.40;48.80;;;;;;5051235;28;20078;-80
2021/10/11 10:32:13;;;;;;;9.45;4.72;;;14.50;48.90;;;;;;5037166;28;20088;-80
2021/10/11 10:34:39;;;;;;;7.28;3.72;;;14.50;48.60;;;;;;5047562;28;20059;-80
2021/10/11 10:37:11;;;;;;;5.63;4.22;;;14.60;48.70;;;;;;5048250;28;20061;-81
2021/10/11 10:39:48;;;;;;;4.50;3.63;;;14.70;48.10;;;;;;5048449;28;20048;-80
2021/10/11 10:42:29;;;;;;;5.47;3.50;;;14.70;47.90;;;;;;5051787;28;20064;-81
2021/10/11 10:44:56;;;;;;;5.40;3.70;;;14.90;48.20;;;;;;5038247;28;20036;-81
2021/10/11 10:47:39;;;;;;;9.10;3.17;;;15.00;48.30;;;;;;5050235;28;20386;-81
2021/10/11 10:50:18;;;;;;;5.32;3.60;;;15.00;47.90;;;;;;5051838;28;20018;-80
2021/10/11 10:52:55;;;;;;;7.50;3.72;;;15.10;47.30;;;;;;5042762;28;20040;-81
2021/10/11 10:55:21;;;;;;;4.18;3.10;;;15.20;47.30;;;;;;5045189;28;20067;-81
2021/10/11 10:57:52;;;;;;;5.10;3.10;;;15.30;47.00;;;;;;5048763;28;20033;-81
2021/10/11 11:00:17;;;;;;;4.43;2.42;;;15.40;46.40;;;;;;5051116;28;20033;-80
2021/10/11 11:02:45;;;;;;;4.22;2.60;;;15.40;46.20;;;;;;5044413;28;20075;-79
2021/10/11 11:05:13;;;;;;;3.75;2.70;;;15.40;45.70;;;;;;5045136;28;20063;-80
2021/10/11 11:07:40;;;;;;;8.07;3.10;;;15.50;45.40;;;;;;5040135;28;20021;-80
2021/10/11 11:10:12;;;;;;;5.68;3.45;;;15.60;45.50;;;;;;5033928;28;20032;-80
2021/10/11 11:12:44;;;;;;;2.65;2.38;;;15.70;44.90;;;;;;5048873;28;20045;-80
2021/10/11 11:15:23;;;;;;;3.63;3.22;;;15.60;45.20;;;;;;5030537;28;20029;-80
2021/10/11 11:17:49;;;;;;;4.70;2.90;;;15.70;45.20;;;;;;5044550;28;20349;-80
2021/10/11 11:20:35;;;;;;;7.65;3.58;;;15.70;45.80;;;;;;5034286;28;20033;-80
2021/10/11 11:23:10;;;;;;;6.30;3.40;;;15.90;45.50;;;;;;5062773;28;20115;-80
2021/10/11 11:25:38;;;;;;;5.10;3.47;;;16.00;45.40;;;;;;5063475;28;20344;-80
2021/10/11 11:28:07;;;;;;;6.72;2.85;;;16.00;45.70;;;;;;5032459;28;20084;-80
2021/10/11 11:30:33;;;;;;;4.57;3.35;;;16.10;45.50;;;;;;5044302;28;20518;-81
2021/10/11 11:33:08;;;;;;;8.00;4.03;;;16.20;45.80;;;;;;5049433;28;20079;-81
2021/10/11 11:35:42;;;;;;;8.80;3.35;;;16.40;45.60;;;;;;5048852;28;20029;-81
2021/10/11 11:38:10;;;;;;;6.40;3.83;;;16.50;45.40;;;;;;5041965;28;20017;-81
2021/10/11 11:40:41;;;;;;;9.10;4.07;;;16.60;45.20;;;;;;5036583;28;20021;-81
2021/10/11 11:43:09;;;;;;;5.50;3.85;;;16.70;45.20;;;;;;5040722;28;20392;-81
2021/10/11 11:45:41;;;;;;;3.72;3.20;;;16.80;44.90;;;;;;5049760;28;20472;-81
2021/10/11 11:48:13;;;;;;;6.68;2.90;;;16.90;44.70;;;;;;5042389;28;20095;-81
2021/10/11 11:50:40;;;;;;;4.25;2.55;;;16.80;44.90;;;;;;5047794;28;20052;-79
2021/10/11 11:53:15;;;;;;;7.80;2.65;;;16.90;45.50;;;;;;5046583;28;20100;-79
2021/10/11 11:55:45;;;;;;;6.25;2.58;;;17.00;45.50;;;;;;5046089;28;20021;-79
2021/10/11 11:58:15;;;;;;;2.95;2.45;;;17.10;45.70;;;;;;5052558;28;20021;-79
2021/10/11 12:00:48;;;;;;;6.95;3.05;;;17.20;45.70;;;;;;5052977;28;20029;-78
2021/10/11 12:03:17;;;;;;;3.40;2.97;;;17.30;45.30;;;;;;5050404;28;20025;-79
2021/10/11 12:05:43;;;;;;;3.95;2.25;;;17.20;44.80;;;;;;5048367;28;20040;-79
2021/10/11 12:08:10;;;;;;;3.67;2.33;;;17.20;45.00;;;;;;5044428;28;20026;-79
2021/10/11 12:10:35;;;;;;;3.47;2.63;;;17.30;45.30;;;;;;5057067;28;20045;-81
2021/10/11 12:13:04;;;;;;;5.53;2.40;;;17.40;45.40;;;;;;5051419;28;20028;-80
2021/10/11 12:15:31;;;;;;;3.90;2.38;;;17.30;44.50;;;;;;5043092;28;20642;-81
2021/10/11 12:18:11;;;;;;;6.72;2.78;;;17.30;43.60;;;;;;5040028;28;20028;-80
2021/10/11 12:20:51;;;;;;;4.97;2.15;;;17.30;43.70;;;;;;5050735;28;20403;-81
2021/10/11 12:23:18;;;;;;;2.53;2.10;;;17.30;43.40;;;;;;5053611;28;20024;-81
2021/10/11 12:25:46;;;;;;;4.75;2.92;;;17.30;43.50;;;;;;5052949;28;20115;-81
2021/10/11 12:28:17;;;;;;;5.78;2.80;;;17.40;43.80;;;;;;5053564;28;20140;-81
2021/10/11 12:30:45;;;;;;;3.90;2.90;;;17.40;43.90;;;;;;5038153;28;20033;-80
2021/10/11 12:33:13;;;;;;;7.90;3.72;;;17.50;44.00;;;;;;5052736;28;20029;-80
2021/10/11 12:35:41;;;;;;;6.57;4.30;;;17.50;44.10;;;;;;5053587;28;20016;-81
2021/10/11 12:38:11;;;;;;;6.85;4.20;;;17.40;44.30;;;;;;5038302;28;20101;-80
2021/10/11 12:40:38;;;;;;;7.40;5.00;;;17.40;44.40;;;;;;5047976;28;20024;-80
2021/10/11 12:43:20;;;;;;;7.72;4.25;;;17.40;44.70;;;;;;5051663;28;20428;-81
2021/10/11 12:45:59;;;;;;;;;;;17.50;45.00;;;;;;5044314;28;20112;-80
2021/10/11 12:48:25;;;;;;;7.72;5.00;;;17.50;45.20;;;;;;5046374;28;19908;-80
2021/10/11 12:50:52;;;;;;;7.05;4.50;;;17.50;45.00;;;;;;5050734;28;20502;-80